sensor_id;sensor_type;location;lat;lon;timestamp;pressure;altitude;pressure_sealevel;temperature;humidity
53715;BME280;39608;55.630;37.864;2022-09-03T00:00:51;99938.28;;;9.78;58.10
53715;BME280;39608;55.630;37.864;2022-09-03T00:06:06;99950.41;;;9.86;57.78
53715;BME280;39608;55.630;37.864;2022-09-03T00:11:13;99952.91;;;9.72;58.02
53715;BME280;39608;55.630;37.864;2022-09-03T00:16:20;99962.94;;;9.71;58.59
53715;BME280;39608;55.630;37.864;2022-09-03T00:21:33;99976.00;;;9.59;59.00
53715;BME280;39608;55.630;37.864;2022-09-03T00:26:36;99980.94;;;9.31;59.75
53715;BME280;39608;55.630;37.864;2022-09-03T00:31:44;99979.91;;;9.12;59.76
53715;BME280;39608;55.630;37.864;2022-09-03T00:36:48;99988.31;;;8.95;60.29
53715;BME280;39608;55.630;37.864;2022-09-03T00:42:02;99994.00;;;8.88;60.49
53715;BME280;39608;55.630;37.864;2022-09-03T00:47:13;100007.00;;;8.70;60.69
53715;BME280;39608;55.630;37.864;2022-09-03T00:52:27;100000.50;;;8.61;61.54
53715;BME280;39608;55.630;37.864;2022-09-03T00:57:43;100007.53;;;8.57;61.52
53715;BME280;39608;55.630;37.864;2022-09-03T01:02:56;100015.63;;;8.47;61.63
53715;BME280;39608;55.630;37.864;2022-09-03T01:08:13;100008.56;;;8.35;62.26
53715;BME280;39608;55.630;37.864;2022-09-03T01:13:22;100008.25;;;8.21;61.87
53715;BME280;39608;55.630;37.864;2022-09-03T01:18:34;100007.97;;;8.18;62.26
53715;BME280;39608;55.630;37.864;2022-09-03T01:29:36;100012.81;;;8.11;62.83
53715;BME280;39608;55.630;37.864;2022-09-03T01:34:48;100010.94;;;8.16;63.17
53715;BME280;39608;55.630;37.864;2022-09-03T01:40:00;100021.19;;;8.19;63.34
53715;BME280;39608;55.630;37.864;2022-09-03T01:45:36;100014.47;;;8.27;63.06
53715;BME280;39608;55.630;37.864;2022-09-03T01:50:48;100013.66;;;8.21;63.10
53715;BME280;39608;55.630;37.864;2022-09-03T01:55:59;100029.88;;;8.21;63.16
53715;BME280;39608;55.630;37.864;2022-09-03T02:01:12;100034.16;;;8.22;63.49
53715;BME280;39608;55.630;37.864;2022-09-03T02:06:16;100048.47;;;8.08;63.26
53715;BME280;39608;55.630;37.864;2022-09-03T02:11:20;100044.09;;;8.01;63.35
53715;BME280;39608;55.630;37.864;2022-09-03T02:16:26;100056.28;;;7.99;63.83
53715;BME280;39608;55.630;37.864;2022-09-03T02:21:32;100055.19;;;7.95;63.44
53715;BME280;39608;55.630;37.864;2022-09-03T02:26:36;100057.31;;;7.93;63.52
53715;BME280;39608;55.630;37.864;2022-09-03T02:31:40;100070.53;;;7.89;63.96
53715;BME280;39608;55.630;37.864;2022-09-03T02:36:44;100075.94;;;7.89;64.11
53715;BME280;39608;55.630;37.864;2022-09-03T02:41:50;100070.81;;;7.93;64.30
53715;BME280;39608;55.630;37.864;2022-09-03T02:46:57;100080.56;;;7.94;63.87
53715;BME280;39608;55.630;37.864;2022-09-03T02:52:01;100084.00;;;7.84;64.04
53715;BME280;39608;55.630;37.864;2022-09-03T02:57:06;100076.41;;;7.76;64.31
53715;BME280;39608;55.630;37.864;2022-09-03T03:02:10;100085.03;;;7.78;64.50
53715;BME280;39608;55.630;37.864;2022-09-03T03:07:13;100073.66;;;7.70;64.30
53715;BME280;39608;55.630;37.864;2022-09-03T03:12:15;100096.16;;;7.81;64.52
53715;BME280;39608;55.630;37.864;2022-09-03T03:17:21;100096.97;;;7.87;64.47
53715;BME280;39608;55.630;37.864;2022-09-03T03:22:23;100095.88;;;7.83;64.28
53715;BME280;39608;55.630;37.864;2022-09-03T03:27:25;100105.88;;;7.87;64.38
53715;BME280;39608;55.630;37.864;2022-09-03T03:32:29;100108.09;;;7.96;64.57
53715;BME280;39608;55.630;37.864;2022-09-03T03:37:32;100109.72;;;7.97;64.60
53715;BME280;39608;55.630;37.864;2022-09-03T03:42:35;100118.63;;;7.97;64.67
53715;BME280;39608;55.630;37.864;2022-09-03T03:47:40;100123.00;;;8.03;64.63
53715;BME280;39608;55.630;37.864;2022-09-03T03:52:42;100118.13;;;8.05;64.76
53715;BME280;39608;55.630;37.864;2022-09-03T03:57:44;100118.47;;;8.19;64.95
53715;BME280;39608;55.630;37.864;2022-09-03T04:02:50;100116.91;;;8.29;64.66
53715;BME280;39608;55.630;37.864;2022-09-03T04:07:52;100123.47;;;8.48;64.41
53715;BME280;39608;55.630;37.864;2022-09-03T04:12:54;100128.38;;;8.56;64.33
53715;BME280;39608;55.630;37.864;2022-09-03T04:17:58;100133.50;;;8.58;64.53
53715;BME280;39608;55.630;37.864;2022-09-03T04:23:02;100144.88;;;8.65;64.20
53715;BME280;39608;55.630;37.864;2022-09-03T04:28:05;100141.66;;;8.63;63.95
53715;BME280;39608;55.630;37.864;2022-09-03T04:33:08;100148.44;;;8.76;63.70
53715;BME280;39608;55.630;37.864;2022-09-03T04:38:12;100151.69;;;8.83;63.56
53715;BME280;39608;55.630;37.864;2022-09-03T04:43:14;100154.41;;;8.94;63.98
53715;BME280;39608;55.630;37.864;2022-09-03T04:48:18;100157.41;;;9.07;63.35
53715;BME280;39608;55.630;37.864;2022-09-03T04:53:20;100145.19;;;9.92;62.07
53715;BME280;39608;55.630;37.864;2022-09-03T04:58:23;100148.63;;;11.24;59.40
53715;BME280;39608;55.630;37.864;2022-09-03T05:03:26;100156.63;;;12.46;57.15
53715;BME280;39608;55.630;37.864;2022-09-03T05:08:30;100153.41;;;13.21;54.79
53715;BME280;39608;55.630;37.864;2022-09-03T05:13:36;100160.00;;;13.85;53.13
53715;BME280;39608;55.630;37.864;2022-09-03T05:18:39;100162.47;;;14.29;52.43
53715;BME280;39608;55.630;37.864;2022-09-03T05:23:43;100175.66;;;14.77;50.80
53715;BME280;39608;55.630;37.864;2022-09-03T05:28:45;100170.66;;;15.07;49.85
53715;BME280;39608;55.630;37.864;2022-09-03T05:33:50;100170.13;;;15.28;49.50
53715;BME280;39608;55.630;37.864;2022-09-03T05:38:56;100186.47;;;15.19;49.12
53715;BME280;39608;55.630;37.864;2022-09-03T05:43:59;100193.69;;;15.37;48.31
53715;BME280;39608;55.630;37.864;2022-09-03T05:49:04;100191.88;;;15.78;48.45
53715;BME280;39608;55.630;37.864;2022-09-03T05:54:07;100191.44;;;16.16;47.23
53715;BME280;39608;55.630;37.864;2022-09-03T05:59:10;100190.28;;;16.49;46.29
53715;BME280;39608;55.630;37.864;2022-09-03T06:04:15;100202.72;;;16.64;46.32
53715;BME280;39608;55.630;37.864;2022-09-03T06:09:18;100210.28;;;16.67;46.66
53715;BME280;39608;55.630;37.864;2022-09-03T06:14:20;100205.69;;;16.93;45.41
53715;BME280;39608;55.630;37.864;2022-09-03T06:19:24;100207.56;;;16.75;45.38
53715;BME280;39608;55.630;37.864;2022-09-03T06:24:31;100213.28;;;16.97;44.78
53715;BME280;39608;55.630;37.864;2022-09-03T06:29:33;100206.03;;;17.27;43.89
53715;BME280;39608;55.630;37.864;2022-09-03T06:34:37;100223.59;;;17.26;43.98
53715;BME280;39608;55.630;37.864;2022-09-03T06:39:40;100217.16;;;17.04;43.62
53715;BME280;39608;55.630;37.864;2022-09-03T06:44:42;100225.88;;;17.50;42.69
53715;BME280;39608;55.630;37.864;2022-09-03T06:49:45;100218.78;;;17.14;42.86
53715;BME280;39608;55.630;37.864;2022-09-03T06:54:47;100228.00;;;15.89;44.50
53715;BME280;39608;55.630;37.864;2022-09-03T06:59:50;100219.19;;;15.10;45.31
53715;BME280;39608;55.630;37.864;2022-09-03T07:04:55;100230.78;;;15.52;45.23
53715;BME280;39608;55.630;37.864;2022-09-03T07:09:58;100218.19;;;15.88;43.33
53715;BME280;39608;55.630;37.864;2022-09-03T07:15:01;100221.19;;;16.09;42.39
53715;BME280;39608;55.630;37.864;2022-09-03T07:20:06;100225.56;;;15.42;44.08
53715;BME280;39608;55.630;37.864;2022-09-03T07:25:08;100224.78;;;14.91;44.31
53715;BME280;39608;55.630;37.864;2022-09-03T07:30:12;100218.56;;;14.77;44.23
53715;BME280;39608;55.630;37.864;2022-09-03T07:35:18;100231.09;;;14.64;44.57
53715;BME280;39608;55.630;37.864;2022-09-03T07:40:26;100225.03;;;14.67;44.65
53715;BME280;39608;55.630;37.864;2022-09-03T07:45:29;100238.34;;;14.82;43.71
53715;BME280;39608;55.630;37.864;2022-09-03T07:50:34;100212.16;;;15.18;42.96
53715;BME280;39608;55.630;37.864;2022-09-03T07:55:39;100236.97;;;15.21;42.20
53715;BME280;39608;55.630;37.864;2022-09-03T08:00:41;100222.94;;;15.60;41.98
53715;BME280;39608;55.630;37.864;2022-09-03T08:05:45;100217.72;;;15.95;41.71
53715;BME280;39608;55.630;37.864;2022-09-03T08:10:48;100223.22;;;16.35;39.89
53715;BME280;39608;55.630;37.864;2022-09-03T08:15:54;100211.81;;;16.90;40.16
53715;BME280;39608;55.630;37.864;2022-09-03T08:20:59;100216.84;;;18.23;38.45
53715;BME280;39608;55.630;37.864;2022-09-03T08:26:01;100218.50;;;19.47;36.67
53715;BME280;39608;55.630;37.864;2022-09-03T08:31:05;100219.06;;;20.08;34.96
53715;BME280;39608;55.630;37.864;2022-09-03T08:36:11;100220.94;;;19.82;35.44
53715;BME280;39608;55.630;37.864;2022-09-03T08:41:15;100218.78;;;19.88;35.26
53715;BME280;39608;55.630;37.864;2022-09-03T08:46:23;100220.13;;;19.82;34.84
53715;BME280;39608;55.630;37.864;2022-09-03T08:51:28;100219.97;;;20.24;34.96
53715;BME280;39608;55.630;37.864;2022-09-03T08:56:31;100222.41;;;20.50;33.68
53715;BME280;39608;55.630;37.864;2022-09-03T09:01:44;100231.59;;;20.67;33.04
53715;BME280;39608;55.630;37.864;2022-09-03T09:06:56;100213.22;;;20.22;33.19
53715;BME280;39608;55.630;37.864;2022-09-03T09:12:12;100221.50;;;19.55;35.06
53715;BME280;39608;55.630;37.864;2022-09-03T09:17:28;100219.47;;;18.79;35.27
53715;BME280;39608;55.630;37.864;2022-09-03T09:22:40;100211.25;;;18.11;35.43
53715;BME280;39608;55.630;37.864;2022-09-03T09:27:47;100211.06;;;18.07;35.76
53715;BME280;39608;55.630;37.864;2022-09-03T09:32:54;100200.47;;;19.17;33.91
53715;BME280;39608;55.630;37.864;2022-09-03T09:37:58;100216.91;;;18.44;34.44
53715;BME280;39608;55.630;37.864;2022-09-03T09:43:09;100212.91;;;17.94;35.50
53715;BME280;39608;55.630;37.864;2022-09-03T09:48:26;100213.22;;;18.40;35.60
53715;BME280;39608;55.630;37.864;2022-09-03T09:53:32;100204.72;;;19.69;33.39
53715;BME280;39608;55.630;37.864;2022-09-03T09:58:34;100204.03;;;20.17;32.52
53715;BME280;39608;55.630;37.864;2022-09-03T10:03:50;100207.44;;;20.14;33.23
53715;BME280;39608;55.630;37.864;2022-09-03T10:09:06;100204.88;;;19.51;33.67
53715;BME280;39608;55.630;37.864;2022-09-03T10:14:15;100206.91;;;19.21;33.24
53715;BME280;39608;55.630;37.864;2022-09-03T10:19:22;100185.13;;;18.64;32.79
53715;BME280;39608;55.630;37.864;2022-09-03T10:24:36;100195.88;;;18.78;32.78
53715;BME280;39608;55.630;37.864;2022-09-03T10:29:40;100199.91;;;18.81;32.39
53715;BME280;39608;55.630;37.864;2022-09-03T10:34:49;100187.22;;;19.52;31.67
53715;BME280;39608;55.630;37.864;2022-09-03T10:40:16;100182.25;;;19.79;30.90
53715;BME280;39608;55.630;37.864;2022-09-03T10:45:31;100206.28;;;19.70;31.86
53715;BME280;39608;55.630;37.864;2022-09-03T10:50:46;100194.03;;;19.12;31.82
53715;BME280;39608;55.630;37.864;2022-09-03T10:55:57;100181.91;;;18.92;31.47
53715;BME280;39608;55.630;37.864;2022-09-03T11:01:08;100180.22;;;18.49;31.99
53715;BME280;39608;55.630;37.864;2022-09-03T11:06:15;100191.06;;;18.45;32.10
53715;BME280;39608;55.630;37.864;2022-09-03T11:11:23;100177.66;;;18.44;31.71
53715;BME280;39608;55.630;37.864;2022-09-03T11:16:31;100176.91;;;18.35;32.03
53715;BME280;39608;55.630;37.864;2022-09-03T11:21:36;100192.03;;;18.41;32.20
53715;BME280;39608;55.630;37.864;2022-09-03T11:26:43;100173.22;;;18.81;32.05
53715;BME280;39608;55.630;37.864;2022-09-03T11:31:56;100185.44;;;20.27;31.12
53715;BME280;39608;55.630;37.864;2022-09-03T11:37:06;100172.66;;;20.59;30.37
53715;BME280;39608;55.630;37.864;2022-09-03T11:42:11;100179.28;;;20.95;29.68
53715;BME280;39608;55.630;37.864;2022-09-03T11:47:24;100160.06;;;20.21;29.70
53715;BME280;39608;55.630;37.864;2022-09-03T11:52:38;100164.78;;;18.87;30.92
53715;BME280;39608;55.630;37.864;2022-09-03T11:57:41;100160.94;;;17.89;32.09
53715;BME280;39608;55.630;37.864;2022-09-03T12:02:48;100152.09;;;18.22;32.00
53715;BME280;39608;55.630;37.864;2022-09-03T12:08:04;100158.13;;;18.07;32.50
53715;BME280;39608;55.630;37.864;2022-09-03T12:13:28;100156.47;;;17.67;33.09
53715;BME280;39608;55.630;37.864;2022-09-03T12:18:33;100144.53;;;17.63;33.20
53715;BME280;39608;55.630;37.864;2022-09-03T12:23:40;100133.00;;;17.87;32.85
53715;BME280;39608;55.630;37.864;2022-09-03T12:28:47;100143.91;;;18.64;31.88
53715;BME280;39608;55.630;37.864;2022-09-03T12:33:51;100139.09;;;18.83;31.28
53715;BME280;39608;55.630;37.864;2022-09-03T12:38:54;100141.03;;;20.04;30.10
53715;BME280;39608;55.630;37.864;2022-09-03T12:44:01;100126.34;;;21.18;29.05
53715;BME280;39608;55.630;37.864;2022-09-03T12:49:04;100121.84;;;22.02;30.71
53715;BME280;39608;55.630;37.864;2022-09-03T12:54:09;100125.13;;;22.08;27.28
53715;BME280;39608;55.630;37.864;2022-09-03T12:59:17;100115.53;;;22.33;27.19
53715;BME280;39608;55.630;37.864;2022-09-03T13:04:24;100123.94;;;22.96;26.81
53715;BME280;39608;55.630;37.864;2022-09-03T13:09:28;100103.75;;;22.36;27.16
53715;BME280;39608;55.630;37.864;2022-09-03T13:14:43;100106.69;;;21.48;28.40
53715;BME280;39608;55.630;37.864;2022-09-03T13:19:57;100116.41;;;20.60;29.36
53715;BME280;39608;55.630;37.864;2022-09-03T13:25:15;100112.25;;;20.13;30.35
53715;BME280;39608;55.630;37.864;2022-09-03T13:30:29;100098.13;;;20.27;30.48
53715;BME280;39608;55.630;37.864;2022-09-03T13:35:36;100102.34;;;21.95;28.69
53715;BME280;39608;55.630;37.864;2022-09-03T13:40:44;100090.09;;;23.02;27.85
53715;BME280;39608;55.630;37.864;2022-09-03T13:45:55;100098.69;;;23.83;26.63
53715;BME280;39608;55.630;37.864;2022-09-03T13:51:06;100096.97;;;24.24;26.20
53715;BME280;39608;55.630;37.864;2022-09-03T13:56:19;100101.78;;;24.28;26.56
53715;BME280;39608;55.630;37.864;2022-09-03T14:01:38;100100.34;;;24.98;26.34
53715;BME280;39608;55.630;37.864;2022-09-03T14:06:45;100095.84;;;25.20;24.57
53715;BME280;39608;55.630;37.864;2022-09-03T14:11:55;100069.63;;;24.80;25.09
53715;BME280;39608;55.630;37.864;2022-09-03T14:17:12;100083.19;;;24.89;25.62
53715;BME280;39608;55.630;37.864;2022-09-03T14:22:19;100060.25;;;24.04;25.91
53715;BME280;39608;55.630;37.864;2022-09-03T14:27:24;100058.63;;;24.00;26.08
53715;BME280;39608;55.630;37.864;2022-09-03T14:32:30;100056.63;;;24.27;25.44
53715;BME280;39608;55.630;37.864;2022-09-03T14:37:47;100058.34;;;23.85;26.81
53715;BME280;39608;55.630;37.864;2022-09-03T14:43:01;100062.88;;;22.30;27.99
53715;BME280;39608;55.630;37.864;2022-09-03T14:48:28;100062.13;;;21.33;29.34
53715;BME280;39608;55.630;37.864;2022-09-03T14:53:49;100043.59;;;22.14;28.28
53715;BME280;39608;55.630;37.864;2022-09-03T15:04:31;100043.22;;;20.88;29.64
53715;BME280;39608;55.630;37.864;2022-09-03T15:09:44;100048.41;;;19.49;30.77
53715;BME280;39608;55.630;37.864;2022-09-03T15:14:51;100044.28;;;18.76;31.84
53715;BME280;39608;55.630;37.864;2022-09-03T15:20:10;100045.09;;;18.35;32.39
53715;BME280;39608;55.630;37.864;2022-09-03T15:25:25;100037.59;;;17.93;33.11
53715;BME280;39608;55.630;37.864;2022-09-03T15:30:34;100035.44;;;17.69;33.49
53715;BME280;39608;55.630;37.864;2022-09-03T15:35:51;100039.25;;;17.85;33.46
53715;BME280;39608;55.630;37.864;2022-09-03T15:41:03;100035.06;;;17.79;33.77
53715;BME280;39608;55.630;37.864;2022-09-03T15:46:10;100035.44;;;17.69;34.50
53715;BME280;39608;55.630;37.864;2022-09-03T15:51:17;100027.81;;;17.36;35.58
53715;BME280;39608;55.630;37.864;2022-09-03T15:56:26;100019.53;;;16.80;35.94
53715;BME280;39608;55.630;37.864;2022-09-03T16:01:40;100042.91;;;16.59;36.35
53715;BME280;39608;55.630;37.864;2022-09-03T16:06:56;100045.13;;;16.22;37.65
53715;BME280;39608;55.630;37.864;2022-09-03T16:12:09;100039.13;;;15.94;38.62
53715;BME280;39608;55.630;37.864;2022-09-03T16:17:24;100054.53;;;15.81;39.42
53715;BME280;39608;55.630;37.864;2022-09-03T16:22:36;100047.38;;;15.63;39.79
53715;BME280;39608;55.630;37.864;2022-09-03T16:27:51;100050.56;;;15.65;39.79
53715;BME280;39608;55.630;37.864;2022-09-03T16:33:02;100044.41;;;15.50;40.10
53715;BME280;39608;55.630;37.864;2022-09-03T16:38:17;100040.81;;;15.41;40.52
53715;BME280;39608;55.630;37.864;2022-09-03T16:43:25;100057.22;;;15.72;38.10
53715;BME280;39608;55.630;37.864;2022-09-03T16:48:35;100059.91;;;15.32;41.17
53715;BME280;39608;55.630;37.864;2022-09-03T16:53:59;100071.16;;;15.31;40.93
53715;BME280;39608;55.630;37.864;2022-09-03T16:59:18;100065.34;;;15.23;41.16
53715;BME280;39608;55.630;37.864;2022-09-03T17:04:56;100064.81;;;15.21;40.98
53715;BME280;39608;55.630;37.864;2022-09-03T17:10:16;100062.41;;;15.20;41.63
53715;BME280;39608;55.630;37.864;2022-09-03T17:15:33;100058.56;;;15.21;41.49
53715;BME280;39608;55.630;37.864;2022-09-03T17:20:54;100057.56;;;15.17;42.14
53715;BME280;39608;55.630;37.864;2022-09-03T17:26:08;100064.09;;;15.07;42.79
53715;BME280;39608;55.630;37.864;2022-09-03T17:31:16;100063.53;;;14.96;42.98
53715;BME280;39608;55.630;37.864;2022-09-03T17:36:25;100061.25;;;14.89;43.25
53715;BME280;39608;55.630;37.864;2022-09-03T17:41:34;100061.75;;;14.92;43.47
53715;BME280;39608;55.630;37.864;2022-09-03T17:46:46;100055.41;;;14.82;44.10
53715;BME280;39608;55.630;37.864;2022-09-03T17:52:00;100050.06;;;14.77;44.27
53715;BME280;39608;55.630;37.864;2022-09-03T17:57:14;100050.63;;;14.88;44.01
53715;BME280;39608;55.630;37.864;2022-09-03T18:02:29;100055.66;;;14.95;44.08
53715;BME280;39608;55.630;37.864;2022-09-03T18:07:41;100072.78;;;14.86;44.86
53715;BME280;39608;55.630;37.864;2022-09-03T18:12:50;100062.22;;;14.71;45.90
53715;BME280;39608;55.630;37.864;2022-09-03T18:17:57;100072.78;;;14.64;46.03
53715;BME280;39608;55.630;37.864;2022-09-03T18:23:04;100040.50;;;14.52;46.02
53715;BME280;39608;55.630;37.864;2022-09-03T18:28:36;100061.59;;;14.74;45.15
53715;BME280;39608;55.630;37.864;2022-09-03T18:33:58;100070.53;;;14.66;46.01
53715;BME280;39608;55.630;37.864;2022-09-03T18:39:23;100058.19;;;14.54;46.55
53715;BME280;39608;55.630;37.864;2022-09-03T18:44:55;100076.72;;;14.44;47.47
53715;BME280;39608;55.630;37.864;2022-09-03T18:50:22;100069.91;;;14.18;48.58
53715;BME280;39608;55.630;37.864;2022-09-03T18:55:53;100061.94;;;14.08;48.53
53715;BME280;39608;55.630;37.864;2022-09-03T19:01:24;100057.00;;;13.96;48.79
53715;BME280;39608;55.630;37.864;2022-09-03T19:06:52;100053.66;;;13.72;50.21
53715;BME280;39608;55.630;37.864;2022-09-03T19:12:26;100049.31;;;13.57;50.40
53715;BME280;39608;55.630;37.864;2022-09-03T19:18:07;100047.41;;;13.57;50.34
53715;BME280;39608;55.630;37.864;2022-09-03T19:23:28;100040.97;;;13.34;51.63
53715;BME280;39608;55.630;37.864;2022-09-03T19:28:52;100031.53;;;13.45;51.20
53715;BME280;39608;55.630;37.864;2022-09-03T19:40:26;100028.03;;;13.59;50.54
53715;BME280;39608;55.630;37.864;2022-09-03T19:45:58;100018.53;;;13.42;51.79
53715;BME280;39608;55.630;37.864;2022-09-03T19:51:27;100021.91;;;13.34;51.94
53715;BME280;39608;55.630;37.864;2022-09-03T19:56:49;100017.75;;;13.23;52.05
53715;BME280;39608;55.630;37.864;2022-09-03T20:02:09;100026.53;;;13.20;52.72
53715;BME280;39608;55.630;37.864;2022-09-03T20:07:31;100024.84;;;13.24;52.81
53715;BME280;39608;55.630;37.864;2022-09-03T20:12:59;100022.16;;;13.38;52.38
53715;BME280;39608;55.630;37.864;2022-09-03T20:18:08;100018.00;;;13.40;52.41
53715;BME280;39608;55.630;37.864;2022-09-03T20:23:19;100023.28;;;13.50;52.32
53715;BME280;39608;55.630;37.864;2022-09-03T20:28:36;100032.47;;;13.55;51.97
53715;BME280;39608;55.630;37.864;2022-09-03T20:33:49;100015.00;;;13.42;51.87
53715;BME280;39608;55.630;37.864;2022-09-03T20:39:15;100036.00;;;13.55;51.96
53715;BME280;39608;55.630;37.864;2022-09-03T20:44:48;100037.91;;;13.55;51.88
53715;BME280;39608;55.630;37.864;2022-09-03T20:49:56;100031.78;;;13.30;53.14
53715;BME280;39608;55.630;37.864;2022-09-03T20:55:10;100039.31;;;13.38;53.45
53715;BME280;39608;55.630;37.864;2022-09-03T21:00:15;100022.19;;;13.18;53.96
53715;BME280;39608;55.630;37.864;2022-09-03T21:05:24;100023.00;;;13.33;53.95
53715;BME280;39608;55.630;37.864;2022-09-03T21:10:36;100035.97;;;13.41;53.84
53715;BME280;39608;55.630;37.864;2022-09-03T21:15:49;100039.81;;;13.40;54.01
53715;BME280;39608;55.630;37.864;2022-09-03T21:21:04;100031.94;;;13.39;53.83
53715;BME280;39608;55.630;37.864;2022-09-03T21:26:17;100033.78;;;13.43;53.96
53715;BME280;39608;55.630;37.864;2022-09-03T21:31:23;100036.88;;;13.37;53.91
53715;BME280;39608;55.630;37.864;2022-09-03T21:36:29;100032.81;;;13.34;54.31
53715;BME280;39608;55.630;37.864;2022-09-03T21:41:36;100037.38;;;13.39;54.03
53715;BME280;39608;55.630;37.864;2022-09-03T21:46:47;100025.19;;;13.36;54.21
53715;BME280;39608;55.630;37.864;2022-09-03T21:51:56;100045.94;;;13.32;54.23
53715;BME280;39608;55.630;37.864;2022-09-03T21:57:11;100034.16;;;13.37;54.26
53715;BME280;39608;55.630;37.864;2022-09-03T22:02:20;100042.28;;;13.23;55.17
53715;BME280;39608;55.630;37.864;2022-09-03T22:07:37;100049.53;;;13.27;55.31
53715;BME280;39608;55.630;37.864;2022-09-03T22:12:45;100038.31;;;13.15;55.22
53715;BME280;39608;55.630;37.864;2022-09-03T22:17:55;100046.28;;;13.11;54.59
53715;BME280;39608;55.630;37.864;2022-09-03T22:23:02;100042.53;;;13.07;55.15
53715;BME280;39608;55.630;37.864;2022-09-03T22:28:14;100038.91;;;13.12;53.69
53715;BME280;39608;55.630;37.864;2022-09-03T22:33:25;100038.84;;;13.17;51.71
53715;BME280;39608;55.630;37.864;2022-09-03T22:38:54;100046.00;;;13.46;51.04
53715;BME280;39608;55.630;37.864;2022-09-03T22:44:11;100046.78;;;13.46;50.49
53715;BME280;39608;55.630;37.864;2022-09-03T22:49:23;100044.75;;;13.38;50.46
53715;BME280;39608;55.630;37.864;2022-09-03T22:54:38;100043.38;;;13.22;50.48
53715;BME280;39608;55.630;37.864;2022-09-03T22:59:53;100038.41;;;13.10;50.58
53715;BME280;39608;55.630;37.864;2022-09-03T23:05:02;100046.41;;;12.87;50.98
53715;BME280;39608;55.630;37.864;2022-09-03T23:10:09;100055.03;;;12.75;51.47
53715;BME280;39608;55.630;37.864;2022-09-03T23:15:17;100033.44;;;12.65;51.63
53715;BME280;39608;55.630;37.864;2022-09-03T23:20:23;100033.97;;;12.48;51.86
53715;BME280;39608;55.630;37.864;2022-09-03T23:25:30;100036.94;;;12.46;52.18
53715;BME280;39608;55.630;37.864;2022-09-03T23:30:35;100041.59;;;12.46;52.06
53715;BME280;39608;55.630;37.864;2022-09-03T23:35:43;100048.94;;;12.45;52.12
53715;BME280;39608;55.630;37.864;2022-09-03T23:40:48;100042.03;;;12.34;52.37
53715;BME280;39608;55.630;37.864;2022-09-03T23:45:59;100054.88;;;12.47;51.87
53715;BME280;39608;55.630;37.864;2022-09-03T23:51:11;100051.44;;;12.42;51.96
53715;BME280;39608;55.630;37.864;2022-09-03T23:56:38;100054.88;;;12.47;52.19
